sensor_id;sensor_type;location;lat;lon;timestamp;P1;durP1;ratioP1;P2;durP2;ratioP2
21825;SDS011;11075;47.944;11.776;2023-04-19T00:00:01;10.90;;;6.87;;
21825;SDS011;11075;47.944;11.776;2023-04-19T00:02:36;11.30;;;6.27;;
21825;SDS011;11075;47.944;11.776;2023-04-19T00:05:03;12.00;;;7.40;;
21825;SDS011;11075;47.944;11.776;2023-04-19T00:07:31;13.40;;;8.33;;
21825;SDS011;11075;47.944;11.776;2023-04-19T00:09:59;10.43;;;7.40;;
21825;SDS011;11075;47.944;11.776;2023-04-19T00:12:25;11.47;;;7.93;;
21825;SDS011;11075;47.944;11.776;2023-04-19T00:14:52;14.50;;;8.67;;
21825;SDS011;11075;47.944;11.776;2023-04-19T00:17:19;13.23;;;8.20;;
21825;SDS011;11075;47.944;11.776;2023-04-19T00:19:46;12.63;;;8.50;;
21825;SDS011;11075;47.944;11.776;2023-04-19T00:22:14;13.20;;;8.63;;
21825;SDS011;11075;47.944;11.776;2023-04-19T00:24:43;11.47;;;8.07;;
21825;SDS011;11075;47.944;11.776;2023-04-19T00:27:09;12.20;;;8.03;;
21825;SDS011;11075;47.944;11.776;2023-04-19T00:29:37;11.23;;;8.33;;
21825;SDS011;11075;47.944;11.776;2023-04-19T00:32:04;12.37;;;8.47;;
21825;SDS011;11075;47.944;11.776;2023-04-19T00:34:32;13.07;;;8.77;;
21825;SDS011;11075;47.944;11.776;2023-04-19T00:36:59;11.30;;;7.50;;
21825;SDS011;11075;47.944;11.776;2023-04-19T00:39:26;14.03;;;8.73;;
21825;SDS011;11075;47.944;11.776;2023-04-19T00:41:53;13.40;;;8.90;;
21825;SDS011;11075;47.944;11.776;2023-04-19T00:44:23;15.57;;;9.20;;
21825;SDS011;11075;47.944;11.776;2023-04-19T00:46:50;12.90;;;9.30;;
21825;SDS011;11075;47.944;11.776;2023-04-19T00:49:17;13.03;;;8.30;;
21825;SDS011;11075;47.944;11.776;2023-04-19T00:51:48;14.70;;;8.93;;
21825;SDS011;11075;47.944;11.776;2023-04-19T00:54:16;14.73;;;9.30;;
21825;SDS011;11075;47.944;11.776;2023-04-19T00:56:48;13.23;;;8.97;;
21825;SDS011;11075;47.944;11.776;2023-04-19T00:59:15;13.53;;;9.20;;
21825;SDS011;11075;47.944;11.776;2023-04-19T01:01:43;14.90;;;9.27;;
21825;SDS011;11075;47.944;11.776;2023-04-19T01:04:10;12.97;;;8.93;;
21825;SDS011;11075;47.944;11.776;2023-04-19T01:06:38;14.60;;;8.53;;
21825;SDS011;11075;47.944;11.776;2023-04-19T01:09:09;17.33;;;9.13;;
21825;SDS011;11075;47.944;11.776;2023-04-19T01:11:39;14.33;;;9.43;;
21825;SDS011;11075;47.944;11.776;2023-04-19T01:14:08;15.80;;;9.57;;
21825;SDS011;11075;47.944;11.776;2023-04-19T01:16:35;16.17;;;9.93;;
21825;SDS011;11075;47.944;11.776;2023-04-19T01:19:02;17.33;;;9.60;;
21825;SDS011;11075;47.944;11.776;2023-04-19T01:21:30;14.63;;;9.37;;
21825;SDS011;11075;47.944;11.776;2023-04-19T01:23:57;14.13;;;9.40;;
21825;SDS011;11075;47.944;11.776;2023-04-19T01:26:24;15.00;;;9.93;;
21825;SDS011;11075;47.944;11.776;2023-04-19T01:28:52;16.27;;;8.63;;
21825;SDS011;11075;47.944;11.776;2023-04-19T01:31:20;13.27;;;8.53;;
21825;SDS011;11075;47.944;11.776;2023-04-19T01:33:46;15.10;;;9.13;;
21825;SDS011;11075;47.944;11.776;2023-04-19T01:36:14;14.33;;;9.50;;
21825;SDS011;11075;47.944;11.776;2023-04-19T01:38:41;16.63;;;9.90;;
21825;SDS011;11075;47.944;11.776;2023-04-19T01:41:08;16.83;;;10.97;;
21825;SDS011;11075;47.944;11.776;2023-04-19T01:43:35;16.80;;;10.13;;
21825;SDS011;11075;47.944;11.776;2023-04-19T01:46:02;18.63;;;10.20;;
21825;SDS011;11075;47.944;11.776;2023-04-19T01:48:29;15.10;;;9.87;;
21825;SDS011;11075;47.944;11.776;2023-04-19T01:50:56;14.90;;;9.27;;
21825;SDS011;11075;47.944;11.776;2023-04-19T01:53:23;15.80;;;9.67;;
21825;SDS011;11075;47.944;11.776;2023-04-19T01:55:49;13.37;;;8.57;;
21825;SDS011;11075;47.944;11.776;2023-04-19T01:58:18;13.60;;;8.80;;
21825;SDS011;11075;47.944;11.776;2023-04-19T02:00:45;16.97;;;10.63;;
21825;SDS011;11075;47.944;11.776;2023-04-19T02:03:12;15.57;;;9.80;;
21825;SDS011;11075;47.944;11.776;2023-04-19T02:05:41;15.90;;;9.93;;
21825;SDS011;11075;47.944;11.776;2023-04-19T02:08:07;17.73;;;9.17;;
21825;SDS011;11075;47.944;11.776;2023-04-19T02:10:34;15.70;;;9.67;;
21825;SDS011;11075;47.944;11.776;2023-04-19T02:13:01;14.67;;;10.10;;
21825;SDS011;11075;47.944;11.776;2023-04-19T02:15:28;17.47;;;11.10;;
21825;SDS011;11075;47.944;11.776;2023-04-19T02:17:54;18.97;;;10.80;;
21825;SDS011;11075;47.944;11.776;2023-04-19T02:20:21;18.70;;;10.23;;
21825;SDS011;11075;47.944;11.776;2023-04-19T02:22:49;16.80;;;11.20;;
21825;SDS011;11075;47.944;11.776;2023-04-19T02:25:17;19.13;;;11.20;;
21825;SDS011;11075;47.944;11.776;2023-04-19T02:27:44;19.70;;;11.10;;
21825;SDS011;11075;47.944;11.776;2023-04-19T02:30:11;18.13;;;11.23;;
21825;SDS011;11075;47.944;11.776;2023-04-19T02:32:38;18.47;;;11.10;;
21825;SDS011;11075;47.944;11.776;2023-04-19T02:35:05;17.50;;;11.20;;
21825;SDS011;11075;47.944;11.776;2023-04-19T02:37:32;18.27;;;11.53;;
21825;SDS011;11075;47.944;11.776;2023-04-19T02:39:59;16.50;;;10.50;;
21825;SDS011;11075;47.944;11.776;2023-04-19T02:42:27;16.67;;;11.07;;
21825;SDS011;11075;47.944;11.776;2023-04-19T02:44:54;17.83;;;10.67;;
21825;SDS011;11075;47.944;11.776;2023-04-19T02:47:22;18.07;;;10.63;;
21825;SDS011;11075;47.944;11.776;2023-04-19T02:49:49;17.47;;;10.90;;
21825;SDS011;11075;47.944;11.776;2023-04-19T02:52:17;18.93;;;11.93;;
21825;SDS011;11075;47.944;11.776;2023-04-19T02:54:44;18.67;;;11.67;;
21825;SDS011;11075;47.944;11.776;2023-04-19T02:57:11;21.73;;;13.00;;
21825;SDS011;11075;47.944;11.776;2023-04-19T02:59:40;18.80;;;12.37;;
21825;SDS011;11075;47.944;11.776;2023-04-19T03:02:06;20.30;;;12.87;;
21825;SDS011;11075;47.944;11.776;2023-04-19T03:04:33;21.73;;;13.57;;
21825;SDS011;11075;47.944;11.776;2023-04-19T03:07:02;21.43;;;11.83;;
21825;SDS011;11075;47.944;11.776;2023-04-19T03:09:29;21.77;;;12.93;;
21825;SDS011;11075;47.944;11.776;2023-04-19T03:11:56;24.67;;;12.20;;
21825;SDS011;11075;47.944;11.776;2023-04-19T03:14:23;19.00;;;12.33;;
21825;SDS011;11075;47.944;11.776;2023-04-19T03:16:50;21.43;;;12.63;;
21825;SDS011;11075;47.944;11.776;2023-04-19T03:19:17;19.97;;;13.10;;
21825;SDS011;11075;47.944;11.776;2023-04-19T03:21:49;21.10;;;12.57;;
21825;SDS011;11075;47.944;11.776;2023-04-19T03:24:18;19.20;;;12.97;;
21825;SDS011;11075;47.944;11.776;2023-04-19T03:26:49;22.20;;;12.80;;
21825;SDS011;11075;47.944;11.776;2023-04-19T03:29:21;20.30;;;12.83;;
21825;SDS011;11075;47.944;11.776;2023-04-19T03:32:07;19.20;;;12.10;;
21825;SDS011;11075;47.944;11.776;2023-04-19T03:34:34;24.83;;;14.27;;
21825;SDS011;11075;47.944;11.776;2023-04-19T03:37:01;21.87;;;13.13;;
21825;SDS011;11075;47.944;11.776;2023-04-19T03:39:30;22.23;;;11.97;;
21825;SDS011;11075;47.944;11.776;2023-04-19T03:42:01;23.13;;;13.27;;
21825;SDS011;11075;47.944;11.776;2023-04-19T03:44:48;21.03;;;11.47;;
21825;SDS011;11075;47.944;11.776;2023-04-19T03:47:17;19.80;;;11.93;;
21825;SDS011;11075;47.944;11.776;2023-04-19T03:49:47;19.93;;;11.33;;
21825;SDS011;11075;47.944;11.776;2023-04-19T03:52:15;17.97;;;10.77;;
21825;SDS011;11075;47.944;11.776;2023-04-19T03:54:45;16.23;;;9.53;;
21825;SDS011;11075;47.944;11.776;2023-04-19T03:57:28;19.47;;;10.40;;
21825;SDS011;11075;47.944;11.776;2023-04-19T03:59:57;17.37;;;10.77;;
21825;SDS011;11075;47.944;11.776;2023-04-19T04:02:24;19.77;;;11.23;;
21825;SDS011;11075;47.944;11.776;2023-04-19T04:04:54;17.53;;;10.67;;
21825;SDS011;11075;47.944;11.776;2023-04-19T04:07:22;18.60;;;10.80;;
21825;SDS011;11075;47.944;11.776;2023-04-19T04:09:50;19.00;;;11.40;;
21825;SDS011;11075;47.944;11.776;2023-04-19T04:12:17;20.13;;;11.63;;
21825;SDS011;11075;47.944;11.776;2023-04-19T04:14:44;20.43;;;12.13;;
21825;SDS011;11075;47.944;11.776;2023-04-19T04:17:12;20.80;;;11.73;;
21825;SDS011;11075;47.944;11.776;2023-04-19T04:19:39;22.07;;;12.73;;
21825;SDS011;11075;47.944;11.776;2023-04-19T04:22:06;20.93;;;12.50;;
21825;SDS011;11075;47.944;11.776;2023-04-19T04:24:39;22.67;;;12.87;;
21825;SDS011;11075;47.944;11.776;2023-04-19T04:27:32;20.47;;;12.47;;
21825;SDS011;11075;47.944;11.776;2023-04-19T04:30:00;22.90;;;12.73;;
21825;SDS011;11075;47.944;11.776;2023-04-19T04:32:31;25.03;;;13.13;;
21825;SDS011;11075;47.944;11.776;2023-04-19T04:35:02;23.57;;;12.83;;
21825;SDS011;11075;47.944;11.776;2023-04-19T04:37:43;23.47;;;12.90;;
21825;SDS011;11075;47.944;11.776;2023-04-19T04:40:10;22.40;;;12.67;;
21825;SDS011;11075;47.944;11.776;2023-04-19T04:42:37;22.50;;;12.57;;
21825;SDS011;11075;47.944;11.776;2023-04-19T04:45:05;22.17;;;12.77;;
21825;SDS011;11075;47.944;11.776;2023-04-19T04:47:35;21.63;;;13.10;;
21825;SDS011;11075;47.944;11.776;2023-04-19T04:50:04;23.47;;;13.20;;
21825;SDS011;11075;47.944;11.776;2023-04-19T04:52:32;25.50;;;13.80;;
21825;SDS011;11075;47.944;11.776;2023-04-19T04:55:07;24.43;;;14.03;;
21825;SDS011;11075;47.944;11.776;2023-04-19T04:57:39;25.40;;;13.33;;
21825;SDS011;11075;47.944;11.776;2023-04-19T05:00:11;27.23;;;13.63;;
21825;SDS011;11075;47.944;11.776;2023-04-19T05:02:48;23.30;;;13.73;;
21825;SDS011;11075;47.944;11.776;2023-04-19T05:05:15;28.07;;;13.67;;
21825;SDS011;11075;47.944;11.776;2023-04-19T05:07:42;24.67;;;13.07;;
21825;SDS011;11075;47.944;11.776;2023-04-19T05:10:09;22.27;;;13.13;;
21825;SDS011;11075;47.944;11.776;2023-04-19T05:12:43;24.13;;;12.27;;
21825;SDS011;11075;47.944;11.776;2023-04-19T05:15:10;25.37;;;12.50;;
21825;SDS011;11075;47.944;11.776;2023-04-19T05:17:41;24.20;;;12.67;;
21825;SDS011;11075;47.944;11.776;2023-04-19T05:20:09;20.53;;;11.97;;
21825;SDS011;11075;47.944;11.776;2023-04-19T05:22:36;22.13;;;12.53;;
21825;SDS011;11075;47.944;11.776;2023-04-19T05:25:09;19.83;;;12.00;;
21825;SDS011;11075;47.944;11.776;2023-04-19T05:27:36;21.87;;;12.27;;
21825;SDS011;11075;47.944;11.776;2023-04-19T05:30:04;20.13;;;12.93;;
21825;SDS011;11075;47.944;11.776;2023-04-19T05:32:37;20.13;;;11.90;;
21825;SDS011;11075;47.944;11.776;2023-04-19T05:35:07;18.60;;;12.07;;
21825;SDS011;11075;47.944;11.776;2023-04-19T05:37:34;20.97;;;12.03;;
21825;SDS011;11075;47.944;11.776;2023-04-19T05:40:03;19.23;;;11.27;;
21825;SDS011;11075;47.944;11.776;2023-04-19T05:42:36;19.93;;;11.67;;
21825;SDS011;11075;47.944;11.776;2023-04-19T05:45:04;21.70;;;12.63;;
21825;SDS011;11075;47.944;11.776;2023-04-19T05:47:32;22.07;;;12.57;;
21825;SDS011;11075;47.944;11.776;2023-04-19T05:50:22;22.50;;;13.37;;
21825;SDS011;11075;47.944;11.776;2023-04-19T05:53:12;22.97;;;13.73;;
21825;SDS011;11075;47.944;11.776;2023-04-19T05:55:39;21.40;;;13.13;;
21825;SDS011;11075;47.944;11.776;2023-04-19T05:58:06;22.83;;;13.87;;
21825;SDS011;11075;47.944;11.776;2023-04-19T06:00:33;21.53;;;13.23;;
21825;SDS011;11075;47.944;11.776;2023-04-19T06:03:07;22.37;;;14.30;;
21825;SDS011;11075;47.944;11.776;2023-04-19T06:05:35;26.60;;;15.20;;
21825;SDS011;11075;47.944;11.776;2023-04-19T06:08:01;21.87;;;13.77;;
21825;SDS011;11075;47.944;11.776;2023-04-19T06:10:29;24.57;;;14.70;;
21825;SDS011;11075;47.944;11.776;2023-04-19T06:13:14;23.93;;;13.90;;
21825;SDS011;11075;47.944;11.776;2023-04-19T06:15:41;26.67;;;15.43;;
21825;SDS011;11075;47.944;11.776;2023-04-19T06:18:08;28.53;;;16.30;;
21825;SDS011;11075;47.944;11.776;2023-04-19T06:20:45;27.97;;;16.10;;
21825;SDS011;11075;47.944;11.776;2023-04-19T06:23:12;31.43;;;18.33;;
21825;SDS011;11075;47.944;11.776;2023-04-19T06:25:40;34.97;;;19.43;;
21825;SDS011;11075;47.944;11.776;2023-04-19T06:28:07;33.67;;;19.87;;
21825;SDS011;11075;47.944;11.776;2023-04-19T06:30:34;36.67;;;21.67;;
21825;SDS011;11075;47.944;11.776;2023-04-19T06:33:01;38.97;;;20.67;;
21825;SDS011;11075;47.944;11.776;2023-04-19T06:35:28;39.63;;;22.03;;
21825;SDS011;11075;47.944;11.776;2023-04-19T06:37:55;37.17;;;21.70;;
21825;SDS011;11075;47.944;11.776;2023-04-19T06:40:22;38.17;;;21.87;;
21825;SDS011;11075;47.944;11.776;2023-04-19T06:42:48;46.93;;;23.77;;
21825;SDS011;11075;47.944;11.776;2023-04-19T06:45:15;42.13;;;23.73;;
21825;SDS011;11075;47.944;11.776;2023-04-19T06:47:42;39.83;;;24.13;;
21825;SDS011;11075;47.944;11.776;2023-04-19T06:50:10;41.77;;;24.00;;
21825;SDS011;11075;47.944;11.776;2023-04-19T06:52:37;46.13;;;24.50;;
21825;SDS011;11075;47.944;11.776;2023-04-19T06:55:05;47.00;;;25.57;;
21825;SDS011;11075;47.944;11.776;2023-04-19T06:57:33;49.13;;;26.43;;
21825;SDS011;11075;47.944;11.776;2023-04-19T07:00:00;49.87;;;26.20;;
21825;SDS011;11075;47.944;11.776;2023-04-19T07:02:29;49.93;;;25.87;;
21825;SDS011;11075;47.944;11.776;2023-04-19T07:04:57;50.10;;;27.20;;
21825;SDS011;11075;47.944;11.776;2023-04-19T07:07:24;48.53;;;26.23;;
21825;SDS011;11075;47.944;11.776;2023-04-19T07:09:50;48.77;;;27.37;;
21825;SDS011;11075;47.944;11.776;2023-04-19T07:12:17;48.97;;;26.00;;
21825;SDS011;11075;47.944;11.776;2023-04-19T07:14:44;51.50;;;26.33;;
21825;SDS011;11075;47.944;11.776;2023-04-19T07:17:11;53.30;;;28.03;;
21825;SDS011;11075;47.944;11.776;2023-04-19T07:19:39;49.83;;;26.37;;
21825;SDS011;11075;47.944;11.776;2023-04-19T07:22:06;53.00;;;26.60;;
21825;SDS011;11075;47.944;11.776;2023-04-19T07:24:33;51.03;;;27.33;;
21825;SDS011;11075;47.944;11.776;2023-04-19T07:27:00;47.13;;;26.60;;
21825;SDS011;11075;47.944;11.776;2023-04-19T07:29:27;49.50;;;26.37;;
21825;SDS011;11075;47.944;11.776;2023-04-19T07:31:55;52.50;;;27.30;;
21825;SDS011;11075;47.944;11.776;2023-04-19T07:34:22;52.70;;;27.53;;
21825;SDS011;11075;47.944;11.776;2023-04-19T07:36:49;51.13;;;27.27;;
21825;SDS011;11075;47.944;11.776;2023-04-19T07:39:16;50.97;;;26.30;;
21825;SDS011;11075;47.944;11.776;2023-04-19T07:41:43;54.00;;;26.70;;
21825;SDS011;11075;47.944;11.776;2023-04-19T07:44:11;52.37;;;26.67;;
21825;SDS011;11075;47.944;11.776;2023-04-19T07:46:40;47.73;;;26.50;;
21825;SDS011;11075;47.944;11.776;2023-04-19T07:49:10;47.13;;;25.67;;
21825;SDS011;11075;47.944;11.776;2023-04-19T07:51:37;49.57;;;26.00;;
21825;SDS011;11075;47.944;11.776;2023-04-19T07:54:04;47.70;;;24.13;;
21825;SDS011;11075;47.944;11.776;2023-04-19T07:56:31;42.13;;;22.83;;
21825;SDS011;11075;47.944;11.776;2023-04-19T07:58:59;42.83;;;23.20;;
21825;SDS011;11075;47.944;11.776;2023-04-19T08:01:34;44.83;;;24.60;;
21825;SDS011;11075;47.944;11.776;2023-04-19T08:04:01;36.97;;;22.17;;
21825;SDS011;11075;47.944;11.776;2023-04-19T08:06:28;42.13;;;23.57;;
21825;SDS011;11075;47.944;11.776;2023-04-19T08:08:56;40.30;;;21.60;;
21825;SDS011;11075;47.944;11.776;2023-04-19T08:11:23;37.50;;;21.47;;
21825;SDS011;11075;47.944;11.776;2023-04-19T08:13:50;40.47;;;21.53;;
21825;SDS011;11075;47.944;11.776;2023-04-19T08:16:37;39.17;;;21.60;;
21825;SDS011;11075;47.944;11.776;2023-04-19T08:19:08;44.13;;;22.97;;
21825;SDS011;11075;47.944;11.776;2023-04-19T08:21:34;36.70;;;21.33;;
21825;SDS011;11075;47.944;11.776;2023-04-19T08:24:07;38.60;;;22.03;;
21825;SDS011;11075;47.944;11.776;2023-04-19T08:26:34;38.40;;;22.07;;
21825;SDS011;11075;47.944;11.776;2023-04-19T08:29:01;33.13;;;19.47;;
21825;SDS011;11075;47.944;11.776;2023-04-19T08:31:28;43.13;;;22.93;;
21825;SDS011;11075;47.944;11.776;2023-04-19T08:33:55;37.60;;;22.27;;
21825;SDS011;11075;47.944;11.776;2023-04-19T08:36:23;42.37;;;22.53;;
21825;SDS011;11075;47.944;11.776;2023-04-19T08:39:05;40.60;;;22.00;;
21825;SDS011;11075;47.944;11.776;2023-04-19T08:41:43;43.57;;;22.07;;
21825;SDS011;11075;47.944;11.776;2023-04-19T08:44:15;40.43;;;20.93;;
21825;SDS011;11075;47.944;11.776;2023-04-19T08:47:01;38.33;;;22.03;;
21825;SDS011;11075;47.944;11.776;2023-04-19T08:49:28;37.07;;;21.10;;
21825;SDS011;11075;47.944;11.776;2023-04-19T08:51:58;37.03;;;20.80;;
21825;SDS011;11075;47.944;11.776;2023-04-19T08:54:28;33.70;;;19.90;;
21825;SDS011;11075;47.944;11.776;2023-04-19T08:56:58;36.30;;;20.30;;
21825;SDS011;11075;47.944;11.776;2023-04-19T08:59:26;37.80;;;21.37;;
21825;SDS011;11075;47.944;11.776;2023-04-19T09:01:54;34.40;;;20.63;;
21825;SDS011;11075;47.944;11.776;2023-04-19T09:04:22;32.83;;;19.77;;
21825;SDS011;11075;47.944;11.776;2023-04-19T09:07:02;36.33;;;19.93;;
21825;SDS011;11075;47.944;11.776;2023-04-19T09:09:29;32.63;;;18.73;;
21825;SDS011;11075;47.944;11.776;2023-04-19T09:12:14;30.00;;;18.27;;
21825;SDS011;11075;47.944;11.776;2023-04-19T09:14:44;31.90;;;18.60;;
21825;SDS011;11075;47.944;11.776;2023-04-19T09:17:27;30.53;;;17.53;;
21825;SDS011;11075;47.944;11.776;2023-04-19T09:19:55;28.47;;;16.93;;
21825;SDS011;11075;47.944;11.776;2023-04-19T09:22:22;32.43;;;18.70;;
21825;SDS011;11075;47.944;11.776;2023-04-19T09:24:50;32.10;;;18.63;;
21825;SDS011;11075;47.944;11.776;2023-04-19T09:27:30;31.73;;;18.33;;
21825;SDS011;11075;47.944;11.776;2023-04-19T09:30:00;29.27;;;16.40;;
21825;SDS011;11075;47.944;11.776;2023-04-19T09:32:28;32.30;;;16.63;;
21825;SDS011;11075;47.944;11.776;2023-04-19T09:35:10;31.30;;;16.73;;
21825;SDS011;11075;47.944;11.776;2023-04-19T09:37:37;26.30;;;16.13;;
21825;SDS011;11075;47.944;11.776;2023-04-19T09:40:26;26.00;;;15.17;;
21825;SDS011;11075;47.944;11.776;2023-04-19T09:42:53;24.53;;;15.40;;
21825;SDS011;11075;47.944;11.776;2023-04-19T09:45:41;24.27;;;14.90;;
21825;SDS011;11075;47.944;11.776;2023-04-19T09:48:10;25.13;;;14.27;;
21825;SDS011;11075;47.944;11.776;2023-04-19T09:50:59;25.63;;;14.77;;
21825;SDS011;11075;47.944;11.776;2023-04-19T09:53:32;22.80;;;13.83;;
21825;SDS011;11075;47.944;11.776;2023-04-19T09:56:00;22.73;;;14.20;;
21825;SDS011;11075;47.944;11.776;2023-04-19T09:58:30;23.77;;;14.17;;
21825;SDS011;11075;47.944;11.776;2023-04-19T10:01:14;20.83;;;14.47;;
21825;SDS011;11075;47.944;11.776;2023-04-19T10:03:46;24.87;;;14.53;;
21825;SDS011;11075;47.944;11.776;2023-04-19T10:06:17;22.57;;;14.40;;
21825;SDS011;11075;47.944;11.776;2023-04-19T10:08:48;22.30;;;14.50;;
21825;SDS011;11075;47.944;11.776;2023-04-19T10:11:16;21.63;;;14.57;;
21825;SDS011;11075;47.944;11.776;2023-04-19T10:13:47;24.60;;;15.10;;
21825;SDS011;11075;47.944;11.776;2023-04-19T10:16:19;26.03;;;16.60;;
21825;SDS011;11075;47.944;11.776;2023-04-19T10:18:47;30.00;;;16.43;;
21825;SDS011;11075;47.944;11.776;2023-04-19T10:21:16;29.80;;;18.57;;
21825;SDS011;11075;47.944;11.776;2023-04-19T10:23:44;35.50;;;19.63;;
21825;SDS011;11075;47.944;11.776;2023-04-19T10:26:12;32.10;;;18.83;;
21825;SDS011;11075;47.944;11.776;2023-04-19T10:28:40;28.20;;;18.00;;
21825;SDS011;11075;47.944;11.776;2023-04-19T10:31:10;29.50;;;18.27;;
21825;SDS011;11075;47.944;11.776;2023-04-19T10:33:39;26.52;;;18.13;;
21825;SDS011;11075;47.944;11.776;2023-04-19T10:36:07;26.73;;;17.05;;
21825;SDS011;11075;47.944;11.776;2023-04-19T10:41:03;28.88;;;18.00;;
21825;SDS011;11075;47.944;11.776;2023-04-19T10:49:02;23.48;;;15.82;;
21825;SDS011;11075;47.944;11.776;2023-04-19T10:54:08;26.58;;;16.95;;
21825;SDS011;11075;47.944;11.776;2023-04-19T10:56:58;21.35;;;14.73;;
21825;SDS011;11075;47.944;11.776;2023-04-19T10:59:34;24.27;;;15.13;;
21825;SDS011;11075;47.944;11.776;2023-04-19T11:02:03;23.17;;;15.73;;
21825;SDS011;11075;47.944;11.776;2023-04-19T11:09:28;28.08;;;17.25;;
21825;SDS011;11075;47.944;11.776;2023-04-19T11:12:00;26.20;;;16.92;;
21825;SDS011;11075;47.944;11.776;2023-04-19T11:14:44;24.50;;;16.33;;
21825;SDS011;11075;47.944;11.776;2023-04-19T11:22:40;23.60;;;15.57;;
21825;SDS011;11075;47.944;11.776;2023-04-19T11:27:40;23.48;;;15.13;;
21825;SDS011;11075;47.944;11.776;2023-04-19T11:30:12;23.17;;;14.75;;
21825;SDS011;11075;47.944;11.776;2023-04-19T11:32:44;22.25;;;14.95;;
21825;SDS011;11075;47.944;11.776;2023-04-19T11:35:12;21.65;;;14.73;;
21825;SDS011;11075;47.944;11.776;2023-04-19T11:37:39;21.83;;;14.73;;
21825;SDS011;11075;47.944;11.776;2023-04-19T11:40:06;23.27;;;14.27;;
21825;SDS011;11075;47.944;11.776;2023-04-19T11:42:35;21.95;;;14.88;;
21825;SDS011;11075;47.944;11.776;2023-04-19T11:45:02;21.42;;;14.27;;
21825;SDS011;11075;47.944;11.776;2023-04-19T11:47:29;23.02;;;14.38;;
21825;SDS011;11075;47.944;11.776;2023-04-19T11:50:28;20.83;;;14.63;;
21825;SDS011;11075;47.944;11.776;2023-04-19T11:52:57;23.45;;;14.65;;
21825;SDS011;11075;47.944;11.776;2023-04-19T11:55:24;20.60;;;14.23;;
21825;SDS011;11075;47.944;11.776;2023-04-19T11:57:52;21.77;;;15.23;;
21825;SDS011;11075;47.944;11.776;2023-04-19T12:00:25;24.10;;;16.20;;
21825;SDS011;11075;47.944;11.776;2023-04-19T12:02:54;26.92;;;15.82;;
21825;SDS011;11075;47.944;11.776;2023-04-19T12:05:22;22.70;;;15.63;;
21825;SDS011;11075;47.944;11.776;2023-04-19T12:10:30;23.17;;;14.97;;
21825;SDS011;11075;47.944;11.776;2023-04-19T12:12:58;20.07;;;12.27;;
21825;SDS011;11075;47.944;11.776;2023-04-19T12:15:41;20.57;;;14.17;;
21825;SDS011;11075;47.944;11.776;2023-04-19T12:18:08;24.27;;;14.77;;
21825;SDS011;11075;47.944;11.776;2023-04-19T12:20:36;20.67;;;14.27;;
21825;SDS011;11075;47.944;11.776;2023-04-19T12:23:09;26.67;;;15.37;;
21825;SDS011;11075;47.944;11.776;2023-04-19T12:25:43;23.87;;;16.20;;
21825;SDS011;11075;47.944;11.776;2023-04-19T12:28:12;27.67;;;15.40;;
21825;SDS011;11075;47.944;11.776;2023-04-19T12:30:40;26.70;;;17.07;;
21825;SDS011;11075;47.944;11.776;2023-04-19T12:33:07;31.20;;;17.37;;
21825;SDS011;11075;47.944;11.776;2023-04-19T12:35:36;32.70;;;18.33;;
21825;SDS011;11075;47.944;11.776;2023-04-19T12:38:04;30.10;;;18.17;;
21825;SDS011;11075;47.944;11.776;2023-04-19T12:40:31;27.70;;;16.73;;
21825;SDS011;11075;47.944;11.776;2023-04-19T12:42:57;28.23;;;17.63;;
21825;SDS011;11075;47.944;11.776;2023-04-19T12:45:24;34.60;;;19.53;;
21825;SDS011;11075;47.944;11.776;2023-04-19T12:47:52;29.43;;;17.90;;
21825;SDS011;11075;47.944;11.776;2023-04-19T12:50:19;34.70;;;20.33;;
21825;SDS011;11075;47.944;11.776;2023-04-19T12:52:47;32.50;;;19.07;;
21825;SDS011;11075;47.944;11.776;2023-04-19T12:55:13;28.83;;;18.00;;
21825;SDS011;11075;47.944;11.776;2023-04-19T12:57:41;28.07;;;16.70;;
21825;SDS011;11075;47.944;11.776;2023-04-19T13:00:07;27.97;;;16.97;;
21825;SDS011;11075;47.944;11.776;2023-04-19T13:02:36;27.73;;;16.97;;
21825;SDS011;11075;47.944;11.776;2023-04-19T13:05:04;24.63;;;14.43;;
21825;SDS011;11075;47.944;11.776;2023-04-19T13:07:31;15.20;;;10.30;;
21825;SDS011;11075;47.944;11.776;2023-04-19T13:09:58;15.93;;;9.03;;
21825;SDS011;11075;47.944;11.776;2023-04-19T13:12:26;12.87;;;9.00;;
21825;SDS011;11075;47.944;11.776;2023-04-19T13:14:54;13.13;;;8.67;;
21825;SDS011;11075;47.944;11.776;2023-04-19T13:17:21;13.50;;;7.77;;
21825;SDS011;11075;47.944;11.776;2023-04-19T13:19:48;10.57;;;7.40;;
21825;SDS011;11075;47.944;11.776;2023-04-19T13:22:15;12.97;;;8.47;;
21825;SDS011;11075;47.944;11.776;2023-04-19T13:24:42;14.23;;;8.90;;
21825;SDS011;11075;47.944;11.776;2023-04-19T13:27:09;13.17;;;7.33;;
21825;SDS011;11075;47.944;11.776;2023-04-19T13:29:36;12.97;;;8.43;;
21825;SDS011;11075;47.944;11.776;2023-04-19T13:32:03;12.37;;;7.00;;
21825;SDS011;11075;47.944;11.776;2023-04-19T13:34:33;10.83;;;7.60;;
21825;SDS011;11075;47.944;11.776;2023-04-19T13:37:00;11.47;;;7.43;;
21825;SDS011;11075;47.944;11.776;2023-04-19T13:39:27;10.10;;;7.07;;
21825;SDS011;11075;47.944;11.776;2023-04-19T13:41:54;11.03;;;8.53;;
21825;SDS011;11075;47.944;11.776;2023-04-19T13:44:21;12.97;;;7.80;;
21825;SDS011;11075;47.944;11.776;2023-04-19T13:46:50;15.27;;;8.47;;
21825;SDS011;11075;47.944;11.776;2023-04-19T13:49:17;12.00;;;7.77;;
21825;SDS011;11075;47.944;11.776;2023-04-19T13:51:44;13.67;;;8.47;;
21825;SDS011;11075;47.944;11.776;2023-04-19T13:54:15;9.37;;;7.17;;
21825;SDS011;11075;47.944;11.776;2023-04-19T13:56:44;10.93;;;7.53;;
21825;SDS011;11075;47.944;11.776;2023-04-19T13:59:11;9.67;;;6.90;;
21825;SDS011;11075;47.944;11.776;2023-04-19T14:01:38;10.40;;;7.03;;
21825;SDS011;11075;47.944;11.776;2023-04-19T14:04:06;8.87;;;6.27;;
21825;SDS011;11075;47.944;11.776;2023-04-19T14:06:33;8.57;;;6.33;;
21825;SDS011;11075;47.944;11.776;2023-04-19T14:09:00;10.03;;;6.13;;
21825;SDS011;11075;47.944;11.776;2023-04-19T14:11:27;8.43;;;5.40;;
21825;SDS011;11075;47.944;11.776;2023-04-19T14:13:54;7.93;;;5.93;;
21825;SDS011;11075;47.944;11.776;2023-04-19T14:16:22;8.63;;;6.20;;
21825;SDS011;11075;47.944;11.776;2023-04-19T14:18:51;8.83;;;6.37;;
21825;SDS011;11075;47.944;11.776;2023-04-19T14:21:18;12.63;;;6.03;;
21825;SDS011;11075;47.944;11.776;2023-04-19T14:23:45;8.07;;;5.67;;
21825;SDS011;11075;47.944;11.776;2023-04-19T14:26:11;9.83;;;6.03;;
21825;SDS011;11075;47.944;11.776;2023-04-19T14:28:40;9.53;;;5.73;;
21825;SDS011;11075;47.944;11.776;2023-04-19T14:31:07;7.23;;;5.53;;
21825;SDS011;11075;47.944;11.776;2023-04-19T14:33:33;7.23;;;4.67;;
21825;SDS011;11075;47.944;11.776;2023-04-19T14:36:00;6.73;;;4.10;;
21825;SDS011;11075;47.944;11.776;2023-04-19T14:38:27;6.67;;;4.70;;
21825;SDS011;11075;47.944;11.776;2023-04-19T14:40:54;4.37;;;3.47;;
21825;SDS011;11075;47.944;11.776;2023-04-19T14:43:22;5.50;;;4.17;;
21825;SDS011;11075;47.944;11.776;2023-04-19T14:45:49;4.90;;;3.80;;
21825;SDS011;11075;47.944;11.776;2023-04-19T14:48:17;6.13;;;4.03;;
21825;SDS011;11075;47.944;11.776;2023-04-19T14:50:47;5.30;;;2.53;;